createdAt,value
2016-08-17T00:00:17.809Z,0
2016-08-17T00:01:16.966Z,0
2016-08-17T00:02:16.965Z,0
2016-08-17T00:03:17.013Z,0
2016-08-17T00:04:17.005Z,0
2016-08-17T00:05:17.806Z,0
2016-08-17T00:06:16.972Z,0
2016-08-17T00:07:16.975Z,0
2016-08-17T00:08:16.996Z,0
2016-08-17T00:09:16.992Z,0
2016-08-17T00:10:18.610Z,0
2016-08-17T00:11:17.007Z,0
2016-08-17T00:12:16.999Z,0
2016-08-17T00:13:17.005Z,0
2016-08-17T00:14:17.000Z,0
2016-08-17T00:15:17.057Z,0
2016-08-17T00:16:17.017Z,0
2016-08-17T00:17:17.002Z,0
2016-08-17T00:18:17.004Z,0
2016-08-17T00:19:17.713Z,0
2016-08-17T00:20:17.917Z,0
2016-08-17T00:21:17.023Z,0
2016-08-17T00:22:17.018Z,0
2016-08-17T00:23:17.025Z,0
2016-08-17T00:24:17.022Z,0
2016-08-17T00:25:17.828Z,0
2016-08-17T00:26:17.722Z,0
2016-08-17T00:27:17.019Z,0
2016-08-17T00:28:17.741Z,0
2016-08-17T00:29:17.027Z,0
2016-08-17T00:30:17.862Z,0
2016-08-17T00:31:17.039Z,0
2016-08-17T00:32:17.041Z,0
2016-08-17T00:33:17.032Z,0
2016-08-17T00:34:17.045Z,0
2016-08-17T00:35:17.870Z,0
2016-08-17T00:36:17.045Z,0
2016-08-17T00:37:17.075Z,0
2016-08-17T00:38:17.097Z,0
2016-08-17T00:39:17.110Z,0
2016-08-17T00:40:17.243Z,0
2016-08-17T00:41:17.076Z,0
2016-08-17T00:42:17.046Z,0
2016-08-17T00:43:17.066Z,0
2016-08-17T00:44:17.091Z,0
2016-08-17T00:45:17.921Z,0
2016-08-17T00:46:17.068Z,0
2016-08-17T00:47:17.070Z,0
2016-08-17T00:48:17.071Z,0
2016-08-17T00:49:17.081Z,0
2016-08-17T00:50:17.979Z,0
2016-08-17T00:51:17.081Z,0
2016-08-17T00:52:17.095Z,0
2016-08-17T00:53:17.794Z,0
2016-08-17T00:54:17.093Z,0
2016-08-17T00:55:17.998Z,0
2016-08-17T00:56:17.085Z,0
2016-08-17T00:57:17.143Z,0
2016-08-17T00:58:17.803Z,0
2016-08-17T00:59:17.830Z,0
2016-08-17T01:00:17.214Z,0
2016-08-17T01:01:17.808Z,0
2016-08-17T01:02:17.103Z,0
2016-08-17T01:03:17.094Z,0
2016-08-17T01:04:17.096Z,0
2016-08-17T01:05:18.715Z,0
2016-08-17T01:06:17.099Z,0
2016-08-17T01:07:17.097Z,0
2016-08-17T01:08:17.107Z,0
2016-08-17T01:09:17.106Z,0
2016-08-17T01:10:17.947Z,0
2016-08-17T01:11:17.119Z,0
2016-08-17T01:12:17.155Z,0
2016-08-17T01:13:17.150Z,0
2016-08-17T01:14:17.828Z,0
2016-08-17T01:15:17.296Z,0
2016-08-17T01:16:17.119Z,0
2016-08-17T01:17:17.128Z,0
2016-08-17T01:18:17.862Z,0
2016-08-17T01:19:17.126Z,0
2016-08-17T01:20:17.997Z,0
2016-08-17T01:21:17.129Z,0
2016-08-17T01:22:17.128Z,0
2016-08-17T01:23:17.149Z,0
2016-08-17T01:24:17.903Z,0
2016-08-17T01:25:17.952Z,0
2016-08-17T01:26:17.160Z,0
2016-08-17T01:27:17.137Z,0
2016-08-17T01:28:17.155Z,0
2016-08-17T01:29:17.160Z,0
2016-08-17T01:30:18.764Z,0
2016-08-17T01:31:17.151Z,0
2016-08-17T01:32:17.160Z,0
2016-08-17T01:33:17.155Z,0
2016-08-17T01:34:17.159Z,0
2016-08-17T01:35:18.018Z,0
2016-08-17T01:36:17.161Z,0
2016-08-17T01:37:17.158Z,0
2016-08-17T01:38:17.162Z,0
2016-08-17T01:39:17.159Z,0
2016-08-17T01:40:18.045Z,0
2016-08-17T01:41:17.176Z,0
2016-08-17T01:42:17.183Z,0
2016-08-17T01:43:17.885Z,0
2016-08-17T01:44:17.896Z,0
2016-08-17T01:45:17.250Z,0
2016-08-17T01:46:17.213Z,0
2016-08-17T01:47:17.223Z,0
2016-08-17T01:48:17.189Z,0
2016-08-17T01:49:17.179Z,0
2016-08-17T01:50:18.739Z,0
2016-08-17T01:51:17.196Z,0
2016-08-17T01:52:17.188Z,0
2016-08-17T01:53:17.195Z,0
2016-08-17T01:54:17.212Z,0
2016-08-17T01:55:18.064Z,0
2016-08-17T01:56:17.204Z,0
2016-08-17T01:57:17.317Z,0
2016-08-17T01:58:17.199Z,0
2016-08-17T01:59:17.202Z,0
2016-08-17T02:00:18.779Z,0
2016-08-17T02:01:17.199Z,0
2016-08-17T02:02:17.211Z,0
2016-08-17T02:03:17.217Z,0
2016-08-17T02:04:17.210Z,0
2016-08-17T02:05:17.352Z,0
2016-08-17T02:06:17.218Z,0
2016-08-17T02:07:17.212Z,0
2016-08-17T02:08:17.221Z,0
2016-08-17T02:09:17.221Z,0
2016-08-17T02:10:18.121Z,0
2016-08-17T02:11:17.225Z,0
2016-08-17T02:12:17.229Z,0
2016-08-17T02:13:19.352Z,0
2016-08-17T02:14:17.938Z,0
2016-08-17T02:15:18.176Z,0
2016-08-17T02:16:17.238Z,0
2016-08-17T02:17:17.231Z,0
2016-08-17T02:18:17.238Z,0
2016-08-17T02:19:17.255Z,0
2016-08-17T02:20:17.358Z,0
2016-08-17T02:21:17.237Z,0
2016-08-17T02:22:17.269Z,0
2016-08-17T02:23:17.274Z,0
2016-08-17T02:24:17.246Z,0
2016-08-17T02:25:18.208Z,0
2016-08-17T02:26:17.962Z,0
2016-08-17T02:27:17.258Z,0
2016-08-17T02:28:17.270Z,0
2016-08-17T02:29:17.979Z,0
2016-08-17T02:30:17.383Z,0
2016-08-17T02:31:17.277Z,0
2016-08-17T02:32:17.278Z,0
2016-08-17T02:33:17.276Z,0
2016-08-17T02:34:17.280Z,0
2016-08-17T02:35:18.165Z,0
2016-08-17T02:36:17.280Z,0
2016-08-17T02:37:17.279Z,0
2016-08-17T02:38:17.278Z,0
2016-08-17T02:39:17.313Z,0
2016-08-17T02:40:18.216Z,0
2016-08-17T02:41:17.296Z,0
2016-08-17T02:42:17.282Z,0
2016-08-17T02:43:17.284Z,0
2016-08-17T02:44:17.284Z,0
2016-08-17T02:45:18.153Z,0
2016-08-17T02:46:17.296Z,0
2016-08-17T02:47:17.299Z,0
2016-08-17T02:48:17.311Z,0
2016-08-17T02:49:17.303Z,0
2016-08-17T02:50:18.118Z,0
2016-08-17T02:51:17.300Z,0
2016-08-17T02:52:17.305Z,0
2016-08-17T02:53:17.303Z,0
2016-08-17T02:54:17.306Z,0
2016-08-17T02:55:18.113Z,0
2016-08-17T02:56:17.320Z,0
2016-08-17T02:57:17.382Z,0
2016-08-17T02:58:17.348Z,0
2016-08-17T02:59:17.317Z,0
2016-08-17T03:00:18.178Z,0
2016-08-17T03:01:17.323Z,0
2016-08-17T03:02:17.344Z,0
2016-08-17T03:03:17.323Z,0
2016-08-17T03:04:17.322Z,0
2016-08-17T03:05:17.441Z,0
2016-08-17T03:06:18.048Z,0
2016-08-17T03:07:18.047Z,0
2016-08-17T03:08:17.326Z,0
2016-08-17T03:09:17.327Z,0
2016-08-17T03:10:18.994Z,0
2016-08-17T03:11:18.055Z,0
2016-08-17T03:12:17.337Z,0
2016-08-17T03:13:17.333Z,0
2016-08-17T03:14:17.346Z,0
2016-08-17T03:15:18.234Z,0
2016-08-17T03:16:17.338Z,0
2016-08-17T03:17:17.340Z,0
2016-08-17T03:18:17.355Z,0
2016-08-17T03:19:17.369Z,0
2016-08-17T03:20:18.299Z,0
2016-08-17T03:21:17.365Z,0
2016-08-17T03:22:17.372Z,0
2016-08-17T03:23:17.360Z,0
2016-08-17T03:24:17.375Z,0
2016-08-17T03:25:18.357Z,0
2016-08-17T03:26:17.373Z,0
2016-08-17T03:27:17.375Z,0
2016-08-17T03:28:17.370Z,0
2016-08-17T03:29:17.363Z,0
2016-08-17T03:30:18.354Z,0
2016-08-17T03:31:17.371Z,0
2016-08-17T03:32:17.379Z,0
2016-08-17T03:33:17.381Z,0
2016-08-17T03:34:17.413Z,0
2016-08-17T03:35:18.397Z,0
2016-08-17T03:36:17.386Z,0
2016-08-17T03:37:17.398Z,0
2016-08-17T03:38:17.383Z,0
2016-08-17T03:39:17.388Z,0
2016-08-17T03:40:17.588Z,0
2016-08-17T03:41:17.404Z,0
2016-08-17T03:42:17.388Z,0
2016-08-17T03:43:17.392Z,0
2016-08-17T03:44:18.090Z,0
2016-08-17T03:45:17.551Z,0
2016-08-17T03:46:17.422Z,0
2016-08-17T03:47:17.411Z,0
2016-08-17T03:48:17.406Z,0
2016-08-17T03:49:17.424Z,0
2016-08-17T03:50:18.360Z,0
2016-08-17T03:51:17.415Z,0
2016-08-17T03:52:17.424Z,0
2016-08-17T03:53:17.433Z,0
2016-08-17T03:54:18.116Z,0
2016-08-17T03:55:18.410Z,0
2016-08-17T03:56:17.427Z,0
2016-08-17T03:57:17.528Z,0
2016-08-17T03:58:17.435Z,0
2016-08-17T03:59:17.416Z,0
2016-08-17T04:00:18.393Z,0
2016-08-17T04:01:17.443Z,0
2016-08-17T04:02:17.447Z,0
2016-08-17T04:03:17.439Z,0
2016-08-17T04:04:17.439Z,0
2016-08-17T04:05:17.597Z,0
2016-08-17T04:06:18.174Z,0
2016-08-17T04:07:17.451Z,0
2016-08-17T04:08:18.139Z,0
2016-08-17T04:09:18.178Z,0
2016-08-17T04:10:18.346Z,0
2016-08-17T04:11:17.457Z,0
2016-08-17T04:12:17.471Z,0
2016-08-17T04:13:17.455Z,0
2016-08-17T04:14:17.452Z,0
2016-08-17T04:15:18.214Z,0
2016-08-17T04:16:17.460Z,0
2016-08-17T04:17:17.461Z,5
2016-08-17T04:18:17.497Z,5
2016-08-17T04:19:17.463Z,5
2016-08-17T04:20:17.606Z,5
2016-08-17T04:21:17.460Z,5
2016-08-17T04:22:18.165Z,5
2016-08-17T04:23:17.490Z,5
2016-08-17T04:24:17.490Z,5
2016-08-17T04:25:17.476Z,10
2016-08-17T04:26:18.168Z,10
2016-08-17T04:27:17.491Z,10
2016-08-17T04:28:18.199Z,10
2016-08-17T04:29:17.492Z,15
2016-08-17T04:30:18.398Z,15
2016-08-17T04:31:17.492Z,15
2016-08-17T04:32:17.491Z,15
2016-08-17T04:33:17.515Z,20
2016-08-17T04:34:17.497Z,20
2016-08-17T04:35:18.369Z,20
2016-08-17T04:36:17.491Z,20
2016-08-17T04:37:17.513Z,25
2016-08-17T04:38:17.498Z,25
2016-08-17T04:39:17.512Z,25
2016-08-17T04:40:18.299Z,25
2016-08-17T04:41:17.489Z,25
2016-08-17T04:42:17.487Z,25
2016-08-17T04:43:18.264Z,25
2016-08-17T04:44:17.495Z,30
2016-08-17T04:45:18.423Z,30
2016-08-17T04:46:17.508Z,30
2016-08-17T04:47:17.531Z,30
2016-08-17T04:48:17.517Z,35
2016-08-17T04:49:17.507Z,35
2016-08-17T04:50:18.377Z,35
2016-08-17T04:51:17.507Z,35
2016-08-17T04:52:17.507Z,35
2016-08-17T04:53:18.215Z,40
2016-08-17T04:54:17.513Z,40
2016-08-17T04:55:18.429Z,40
2016-08-17T04:56:17.519Z,40
2016-08-17T04:57:17.570Z,40
2016-08-17T04:58:17.522Z,40
2016-08-17T04:59:17.541Z,40
2016-08-17T05:00:18.553Z,40
2016-08-17T05:01:17.519Z,40
2016-08-17T05:02:17.526Z,45
2016-08-17T05:03:17.538Z,45
2016-08-17T05:04:17.567Z,45
2016-08-17T05:05:18.540Z,45
2016-08-17T05:06:17.529Z,45
2016-08-17T05:07:17.531Z,50
2016-08-17T05:08:17.549Z,50
2016-08-17T05:09:17.568Z,50
2016-08-17T05:10:18.376Z,50
2016-08-17T05:11:17.536Z,50
2016-08-17T05:12:17.547Z,55
2016-08-17T05:13:18.246Z,55
2016-08-17T05:14:17.553Z,55
2016-08-17T05:15:18.557Z,55
2016-08-17T05:16:17.576Z,60
2016-08-17T05:17:17.563Z,60
2016-08-17T05:18:17.557Z,60
2016-08-17T05:19:17.560Z,65
2016-08-17T05:20:18.524Z,65
2016-08-17T05:21:17.572Z,65
2016-08-17T05:22:17.564Z,65
2016-08-17T05:23:17.581Z,70
2016-08-17T05:24:17.580Z,70
2016-08-17T05:25:18.562Z,75
2016-08-17T05:26:17.589Z,80
2016-08-17T05:27:17.580Z,80
2016-08-17T05:28:17.580Z,85
2016-08-17T05:29:17.590Z,85
2016-08-17T05:30:18.562Z,85
2016-08-17T05:31:18.287Z,85
2016-08-17T05:32:17.589Z,90
2016-08-17T05:33:17.580Z,90
2016-08-17T05:34:17.582Z,95
2016-08-17T05:35:18.536Z,95
2016-08-17T05:36:17.603Z,95
2016-08-17T05:37:17.602Z,100
2016-08-17T05:38:17.604Z,100
2016-08-17T05:39:17.612Z,105
2016-08-17T05:40:18.560Z,105
2016-08-17T05:41:18.301Z,105
2016-08-17T05:42:17.645Z,110
2016-08-17T05:43:17.606Z,105
2016-08-17T05:44:17.624Z,105
2016-08-17T05:45:18.579Z,115
2016-08-17T05:46:17.622Z,110
2016-08-17T05:47:17.630Z,110
2016-08-17T05:48:17.632Z,110
2016-08-17T05:49:17.630Z,115
2016-08-17T05:50:18.565Z,110
2016-08-17T05:51:17.630Z,110
2016-08-17T05:52:17.631Z,110
2016-08-17T05:53:18.329Z,105
2016-08-17T05:54:17.660Z,105
2016-08-17T05:55:18.497Z,105
2016-08-17T05:56:17.655Z,105
2016-08-17T05:57:18.416Z,105
2016-08-17T05:58:17.657Z,105
2016-08-17T05:59:17.658Z,105
2016-08-17T06:00:17.760Z,100
2016-08-17T06:01:18.355Z,100
2016-08-17T06:02:17.673Z,100
2016-08-17T06:03:17.669Z,100
2016-08-17T06:04:17.669Z,100
2016-08-17T06:05:18.577Z,105
2016-08-17T06:06:17.679Z,105
2016-08-17T06:07:18.368Z,105
2016-08-17T06:08:18.365Z,105
2016-08-17T06:09:17.680Z,110
2016-08-17T06:10:18.682Z,110
2016-08-17T06:11:17.703Z,115
2016-08-17T06:12:17.676Z,115
2016-08-17T06:13:18.405Z,115
2016-08-17T06:14:17.708Z,115
2016-08-17T06:15:18.580Z,115
2016-08-17T06:16:17.710Z,120
2016-08-17T06:17:17.721Z,120
2016-08-17T06:18:17.703Z,120
2016-08-17T06:19:17.694Z,120
2016-08-17T06:20:18.686Z,125
2016-08-17T06:21:17.733Z,125
2016-08-17T06:22:17.704Z,120
2016-08-17T06:23:17.742Z,120
2016-08-17T06:24:17.727Z,125
2016-08-17T06:25:18.612Z,125
2016-08-17T06:26:17.762Z,125
2016-08-17T06:27:17.734Z,125
2016-08-17T06:28:17.731Z,130
2016-08-17T06:29:17.740Z,130
2016-08-17T06:30:17.929Z,130
2016-08-17T06:31:17.738Z,130
2016-08-17T06:32:17.740Z,130
2016-08-17T06:33:17.753Z,130
2016-08-17T06:34:17.737Z,135
2016-08-17T06:35:18.687Z,130
2016-08-17T06:36:17.736Z,130
2016-08-17T06:37:17.755Z,130
2016-08-17T06:38:17.757Z,130
2016-08-17T06:39:17.760Z,130
2016-08-17T06:40:18.677Z,130
2016-08-17T06:41:17.759Z,130
2016-08-17T06:42:17.775Z,130
2016-08-17T06:43:17.770Z,130
2016-08-17T06:44:17.770Z,130
2016-08-17T06:45:19.387Z,130
2016-08-17T06:46:17.775Z,130
2016-08-17T06:47:17.795Z,130
2016-08-17T06:48:17.791Z,130
2016-08-17T06:49:17.767Z,130
2016-08-17T06:50:19.505Z,130
2016-08-17T06:51:17.792Z,130
2016-08-17T06:52:17.799Z,130
2016-08-17T06:53:18.485Z,130
2016-08-17T06:54:17.798Z,130
2016-08-17T06:55:18.785Z,135
2016-08-17T06:56:18.498Z,135
2016-08-17T06:57:18.553Z,135
2016-08-17T06:58:17.805Z,140
2016-08-17T06:59:17.812Z,140
2016-08-17T07:00:18.727Z,145
2016-08-17T07:01:17.830Z,145
2016-08-17T07:02:17.813Z,150
2016-08-17T07:03:18.548Z,150
2016-08-17T07:04:17.827Z,150
2016-08-17T07:05:18.742Z,145
2016-08-17T07:06:17.827Z,145
2016-08-17T07:07:17.832Z,145
2016-08-17T07:08:18.534Z,150
2016-08-17T07:09:19.260Z,150
2016-08-17T07:10:18.766Z,150
2016-08-17T07:11:17.840Z,150
2016-08-17T07:12:17.841Z,150
2016-08-17T07:13:17.837Z,150
2016-08-17T07:14:17.854Z,150
2016-08-17T07:15:18.711Z,155
2016-08-17T07:16:17.849Z,155
2016-08-17T07:17:18.576Z,155
2016-08-17T07:18:17.851Z,155
2016-08-17T07:19:18.566Z,160
2016-08-17T07:20:18.049Z,160
2016-08-17T07:21:17.879Z,160
2016-08-17T07:22:17.875Z,160
2016-08-17T07:23:17.876Z,160
2016-08-17T07:24:17.883Z,160
2016-08-17T07:25:18.810Z,160
2016-08-17T07:26:17.875Z,160
2016-08-17T07:27:17.884Z,165
2016-08-17T07:28:17.904Z,165
2016-08-17T07:29:17.881Z,165
2016-08-17T07:30:18.067Z,170
2016-08-17T07:31:17.900Z,170
2016-08-17T07:32:17.904Z,175
2016-08-17T07:33:17.902Z,175
2016-08-17T07:34:17.907Z,180
2016-08-17T07:35:18.835Z,185
2016-08-17T07:36:17.909Z,190
2016-08-17T07:37:17.924Z,190
2016-08-17T07:38:17.908Z,190
2016-08-17T07:39:18.640Z,190
2016-08-17T07:40:18.163Z,195
2016-08-17T07:41:17.921Z,190
2016-08-17T07:42:17.944Z,190
2016-08-17T07:43:17.953Z,190
2016-08-17T07:44:18.645Z,195
2016-08-17T07:45:18.868Z,195
2016-08-17T07:46:17.948Z,195
2016-08-17T07:47:17.942Z,195
2016-08-17T07:48:18.655Z,195
2016-08-17T07:49:17.950Z,195
2016-08-17T07:50:18.892Z,200
2016-08-17T07:51:17.958Z,200
2016-08-17T07:52:17.969Z,205
2016-08-17T07:53:17.963Z,205
2016-08-17T07:54:17.985Z,210
2016-08-17T07:55:18.896Z,210
2016-08-17T07:56:17.980Z,210
2016-08-17T07:57:18.029Z,210
2016-08-17T07:58:18.690Z,215
2016-08-17T07:59:17.989Z,215
2016-08-17T08:00:18.924Z,215
2016-08-17T08:01:17.988Z,220
2016-08-17T08:02:17.993Z,220
2016-08-17T08:03:17.991Z,225
2016-08-17T08:04:18.705Z,225
2016-08-17T08:05:19.671Z,225
2016-08-17T08:06:18.030Z,225
2016-08-17T08:07:18.025Z,225
2016-08-17T08:08:18.019Z,225
2016-08-17T08:09:18.018Z,230
2016-08-17T08:10:18.912Z,230
2016-08-17T08:11:18.027Z,240
2016-08-17T08:12:18.036Z,240
2016-08-17T08:13:18.038Z,240
2016-08-17T08:14:18.050Z,235
2016-08-17T08:15:18.238Z,235
2016-08-17T08:16:18.060Z,235
2016-08-17T08:17:18.058Z,235
2016-08-17T08:18:18.071Z,230
2016-08-17T08:19:18.768Z,230
2016-08-17T08:20:18.939Z,230
2016-08-17T08:21:18.064Z,230
2016-08-17T08:22:18.072Z,230
2016-08-17T08:23:18.085Z,230
2016-08-17T08:24:18.079Z,230
2016-08-17T08:25:18.280Z,230
2016-08-17T08:26:18.796Z,230
2016-08-17T08:27:18.092Z,230
2016-08-17T08:28:18.087Z,230
2016-08-17T08:29:18.092Z,230
2016-08-17T08:30:18.985Z,225
2016-08-17T08:31:18.113Z,225
2016-08-17T08:32:18.111Z,225
2016-08-17T08:33:18.133Z,225
2016-08-17T08:34:18.131Z,225
2016-08-17T08:35:18.284Z,230
2016-08-17T08:36:18.134Z,230
2016-08-17T08:37:18.131Z,230
2016-08-17T08:38:18.150Z,230
2016-08-17T08:39:18.133Z,230
2016-08-17T08:40:19.775Z,230
2016-08-17T08:41:18.173Z,230
2016-08-17T08:42:18.147Z,235
2016-08-17T08:43:18.176Z,235
2016-08-17T08:44:18.160Z,235
2016-08-17T08:45:20.473Z,235
2016-08-17T08:46:18.180Z,235
2016-08-17T08:47:18.169Z,235
2016-08-17T08:48:18.179Z,240
2016-08-17T08:49:18.181Z,240
2016-08-17T08:50:18.354Z,240
2016-08-17T08:51:18.195Z,240
2016-08-17T08:52:18.188Z,240
2016-08-17T08:53:18.200Z,240
2016-08-17T08:54:18.214Z,240
2016-08-17T08:55:19.878Z,240
2016-08-17T08:56:18.212Z,240
2016-08-17T08:57:18.268Z,240
2016-08-17T08:58:18.218Z,240
2016-08-17T08:59:18.945Z,240
2016-08-17T09:00:19.076Z,240
2016-08-17T09:01:18.943Z,235
2016-08-17T09:02:18.232Z,235
2016-08-17T09:03:18.236Z,235
2016-08-17T09:04:18.234Z,230
2016-08-17T09:05:20.551Z,230
2016-08-17T09:06:18.244Z,225
2016-08-17T09:07:18.253Z,225
2016-08-17T09:08:18.259Z,220
2016-08-17T09:09:18.264Z,220
2016-08-17T09:10:19.956Z,220
2016-08-17T09:11:18.261Z,215
2016-08-17T09:12:18.275Z,215
2016-08-17T09:13:18.974Z,210
2016-08-17T09:14:18.285Z,205
2016-08-17T09:15:19.895Z,200
2016-08-17T09:16:18.299Z,200
2016-08-17T09:17:18.304Z,195
2016-08-17T09:18:18.307Z,195
2016-08-17T09:19:18.322Z,185
2016-08-17T09:20:19.943Z,185
2016-08-17T09:21:18.325Z,185
2016-08-17T09:22:18.322Z,180
2016-08-17T09:23:18.311Z,175
2016-08-17T09:24:18.329Z,175
2016-08-17T09:25:19.242Z,170
2016-08-17T09:26:18.330Z,165
2016-08-17T09:27:18.347Z,165
2016-08-17T09:28:19.034Z,160
2016-08-17T09:29:18.339Z,155
2016-08-17T09:30:19.265Z,155
2016-08-17T09:31:18.341Z,155
2016-08-17T09:32:18.338Z,150
2016-08-17T09:33:18.345Z,150
2016-08-17T09:34:18.348Z,145
2016-08-17T09:35:18.587Z,145
2016-08-17T09:36:18.358Z,145
2016-08-17T09:37:18.359Z,145
2016-08-17T09:38:18.375Z,145
2016-08-17T09:39:18.374Z,145
2016-08-17T09:40:19.299Z,145
2016-08-17T09:41:18.374Z,145
2016-08-17T09:42:18.396Z,145
2016-08-17T09:43:18.392Z,150
2016-08-17T09:44:18.394Z,165
2016-08-17T09:45:20.034Z,150
2016-08-17T09:46:18.398Z,150
2016-08-17T09:47:18.404Z,155
2016-08-17T09:48:18.406Z,160
2016-08-17T09:49:18.422Z,155
2016-08-17T09:50:19.378Z,190
2016-08-17T09:51:18.420Z,210
2016-08-17T09:52:18.417Z,225
2016-08-17T09:53:19.145Z,225
2016-08-17T09:54:18.424Z,220
2016-08-17T09:55:19.392Z,225
2016-08-17T09:56:18.436Z,220
2016-08-17T09:57:18.510Z,220
2016-08-17T09:58:18.463Z,220
2016-08-17T09:59:18.461Z,215
2016-08-17T10:00:19.342Z,215
2016-08-17T10:01:18.469Z,215
2016-08-17T10:02:18.464Z,215
2016-08-17T10:03:18.469Z,215
2016-08-17T10:04:18.462Z,215
2016-08-17T10:05:20.075Z,215
2016-08-17T10:06:18.478Z,210
2016-08-17T10:07:18.485Z,210
2016-08-17T10:08:18.491Z,210
2016-08-17T10:09:18.484Z,210
2016-08-17T10:10:19.194Z,210
2016-08-17T10:11:18.502Z,215
2016-08-17T10:12:18.508Z,210
2016-08-17T10:13:18.505Z,205
2016-08-17T10:14:18.518Z,210
2016-08-17T10:15:19.481Z,205
2016-08-17T10:16:18.521Z,205
2016-08-17T10:17:19.241Z,205
2016-08-17T10:18:18.528Z,205
2016-08-17T10:19:19.251Z,205
2016-08-17T10:20:19.267Z,205
2016-08-17T10:21:19.251Z,205
2016-08-17T10:22:18.538Z,200
2016-08-17T10:23:19.251Z,200
2016-08-17T10:24:18.541Z,200
2016-08-17T10:25:19.392Z,200
2016-08-17T10:26:18.553Z,200
2016-08-17T10:27:18.550Z,200
2016-08-17T10:28:18.576Z,200
2016-08-17T10:29:18.574Z,200
2016-08-17T10:30:19.456Z,200
2016-08-17T10:31:18.587Z,200
2016-08-17T10:32:18.590Z,200
2016-08-17T10:33:18.593Z,200
2016-08-17T10:34:18.592Z,200
2016-08-17T10:35:19.516Z,195
2016-08-17T10:36:18.592Z,195
2016-08-17T10:37:18.599Z,195
2016-08-17T10:38:19.316Z,195
2016-08-17T10:39:18.610Z,195
2016-08-17T10:40:18.604Z,195
2016-08-17T10:41:18.633Z,195
2016-08-17T10:42:18.614Z,195
2016-08-17T10:43:18.647Z,195
2016-08-17T10:44:18.626Z,195
2016-08-17T10:45:18.636Z,195
2016-08-17T10:46:18.654Z,195
2016-08-17T10:47:18.652Z,195
2016-08-17T10:48:18.656Z,195
2016-08-17T10:49:18.668Z,190
2016-08-17T10:50:18.659Z,190
2016-08-17T10:51:18.668Z,190
2016-08-17T10:52:18.667Z,190
2016-08-17T10:53:18.669Z,185
2016-08-17T10:54:18.670Z,190
2016-08-17T10:55:18.679Z,190
2016-08-17T10:56:18.686Z,190
2016-08-17T10:57:18.838Z,190
2016-08-17T10:58:18.686Z,190
2016-08-17T10:59:18.713Z,190
2016-08-17T11:00:18.727Z,190
2016-08-17T11:01:18.704Z,190
2016-08-17T11:02:18.731Z,190
2016-08-17T11:03:18.719Z,190
2016-08-17T11:04:19.411Z,190
2016-08-17T11:05:19.444Z,190
2016-08-17T11:06:18.733Z,190
2016-08-17T11:07:18.736Z,190
2016-08-17T11:08:19.455Z,195
2016-08-17T11:09:18.733Z,190
2016-08-17T11:10:19.754Z,190
2016-08-17T11:11:18.779Z,190
2016-08-17T11:12:18.769Z,190
2016-08-17T11:13:18.749Z,190
2016-08-17T11:14:19.486Z,190
2016-08-17T11:15:18.779Z,190
2016-08-17T11:16:18.794Z,190
2016-08-17T11:17:18.793Z,190
2016-08-17T11:18:18.776Z,190
2016-08-17T11:19:18.797Z,190
2016-08-17T11:20:19.739Z,190
2016-08-17T11:21:18.800Z,190
2016-08-17T11:22:18.790Z,190
2016-08-17T11:23:18.796Z,190
2016-08-17T11:24:18.800Z,190
2016-08-17T11:25:18.805Z,190
2016-08-17T11:26:18.825Z,190
2016-08-17T11:27:18.814Z,190
2016-08-17T11:28:18.826Z,190
2016-08-17T11:29:19.548Z,190
2016-08-17T11:30:19.632Z,190
2016-08-17T11:31:18.843Z,190
2016-08-17T11:32:18.841Z,185
2016-08-17T11:33:18.839Z,185
2016-08-17T11:34:20.309Z,185
2016-08-17T11:35:19.574Z,185
2016-08-17T11:36:18.858Z,190
2016-08-17T11:37:18.866Z,185
2016-08-17T11:38:18.866Z,185
2016-08-17T11:39:18.871Z,185
2016-08-17T11:40:18.878Z,185
2016-08-17T11:41:18.894Z,185
2016-08-17T11:42:18.903Z,185
2016-08-17T11:43:19.609Z,185
2016-08-17T11:44:18.897Z,185
2016-08-17T11:45:18.927Z,185
2016-08-17T11:46:18.902Z,185
2016-08-17T11:47:18.915Z,185
2016-08-17T11:48:19.619Z,185
2016-08-17T11:49:19.625Z,185
2016-08-17T11:50:19.736Z,185
2016-08-17T11:51:18.939Z,185
2016-08-17T11:52:18.946Z,185
2016-08-17T11:53:18.954Z,185
2016-08-17T11:54:18.941Z,185
2016-08-17T11:55:19.839Z,185
2016-08-17T11:56:18.954Z,185
2016-08-17T11:57:19.722Z,185
2016-08-17T11:58:18.970Z,185
2016-08-17T11:59:18.979Z,185
2016-08-17T12:00:19.828Z,185
2016-08-17T12:01:19.704Z,180
2016-08-17T12:02:18.995Z,180
2016-08-17T12:03:18.989Z,180
2016-08-17T12:04:18.988Z,180
2016-08-17T12:05:19.008Z,180
2016-08-17T12:06:19.014Z,180
2016-08-17T12:07:19.010Z,180
2016-08-17T12:08:19.014Z,180
2016-08-17T12:09:19.043Z,180
2016-08-17T12:10:19.726Z,180
2016-08-17T12:11:19.042Z,180
2016-08-17T12:12:19.037Z,180
2016-08-17T12:13:19.043Z,185
2016-08-17T12:14:19.755Z,180
2016-08-17T12:15:19.053Z,180
2016-08-17T12:16:19.058Z,180
2016-08-17T12:17:19.765Z,180
2016-08-17T12:18:19.066Z,180
2016-08-17T12:19:19.073Z,180
2016-08-17T12:20:19.809Z,180
2016-08-17T12:21:19.783Z,180
2016-08-17T12:22:19.094Z,180
2016-08-17T12:23:19.109Z,180
2016-08-17T12:24:19.109Z,180
2016-08-17T12:25:19.335Z,180
2016-08-17T12:26:19.110Z,180
2016-08-17T12:27:19.119Z,180
2016-08-17T12:28:19.111Z,180
2016-08-17T12:29:19.121Z,180
2016-08-17T12:30:19.129Z,180
2016-08-17T12:31:19.850Z,180
2016-08-17T12:32:19.835Z,180
2016-08-17T12:33:19.871Z,180
2016-08-17T12:34:19.141Z,180
2016-08-17T12:35:19.847Z,180
2016-08-17T12:36:19.164Z,180
2016-08-17T12:37:19.165Z,180
2016-08-17T12:38:19.169Z,180
2016-08-17T12:39:19.174Z,180
2016-08-17T12:40:19.185Z,180
2016-08-17T12:41:19.199Z,175
2016-08-17T12:42:19.193Z,175
2016-08-17T12:43:19.189Z,175
2016-08-17T12:44:19.193Z,165
2016-08-17T12:45:19.201Z,165
2016-08-17T12:46:19.199Z,170
2016-08-17T12:47:19.207Z,175
2016-08-17T12:48:19.229Z,170
2016-08-17T12:49:19.215Z,170
2016-08-17T12:50:19.252Z,170
2016-08-17T12:51:19.237Z,170
2016-08-17T12:52:19.971Z,170
2016-08-17T12:53:20.659Z,170
2016-08-17T12:54:19.945Z,170
2016-08-17T12:55:19.257Z,170
2016-08-17T12:56:19.279Z,175
2016-08-17T12:57:19.321Z,165
2016-08-17T12:58:19.267Z,170
2016-08-17T12:59:19.271Z,170
2016-08-17T13:00:19.277Z,170
2016-08-17T13:01:19.286Z,165
2016-08-17T13:02:19.302Z,165
2016-08-17T13:03:19.293Z,160
2016-08-17T13:04:20.001Z,160
2016-08-17T13:05:19.300Z,160
2016-08-17T13:06:19.312Z,160
2016-08-17T13:07:19.320Z,170
2016-08-17T13:08:19.338Z,160
2016-08-17T13:09:19.333Z,165
2016-08-17T13:10:19.363Z,165
2016-08-17T13:11:19.338Z,170
2016-08-17T13:12:19.346Z,180
2016-08-17T13:13:19.336Z,175
2016-08-17T13:14:20.059Z,165
2016-08-17T13:15:20.066Z,165
2016-08-17T13:16:19.356Z,175
2016-08-17T13:17:19.375Z,180
2016-08-17T13:18:19.367Z,185
2016-08-17T13:19:19.379Z,185
2016-08-17T13:20:19.377Z,185
2016-08-17T13:21:19.397Z,185
2016-08-17T13:22:20.107Z,185
2016-08-17T13:23:19.403Z,185
2016-08-17T13:24:20.117Z,185
2016-08-17T13:25:20.147Z,185
2016-08-17T13:26:19.411Z,185
2016-08-17T13:27:19.418Z,185
2016-08-17T13:28:19.415Z,185
2016-08-17T13:29:19.625Z,185
2016-08-17T13:30:19.431Z,185
2016-08-17T13:31:19.435Z,185
2016-08-17T13:32:19.450Z,185
2016-08-17T13:33:19.457Z,185
2016-08-17T13:34:19.473Z,185
2016-08-17T13:35:19.467Z,185
2016-08-17T13:36:19.488Z,185
2016-08-17T13:37:19.475Z,185
2016-08-17T13:38:19.481Z,190
2016-08-17T13:39:19.478Z,185
2016-08-17T13:40:19.497Z,185
2016-08-17T13:41:19.486Z,185
2016-08-17T13:42:19.510Z,185
2016-08-17T13:43:19.511Z,175
2016-08-17T13:44:19.512Z,170
2016-08-17T13:45:20.233Z,150
2016-08-17T13:46:20.251Z,160
2016-08-17T13:47:20.968Z,175
2016-08-17T13:48:20.299Z,165
2016-08-17T13:49:20.980Z,160
2016-08-17T13:50:21.931Z,180
2016-08-17T13:51:23.637Z,180
2016-08-17T13:52:23.103Z,185
2016-08-17T13:53:23.043Z,190
2016-08-17T13:54:24.096Z,190
2016-08-17T13:55:23.743Z,190
2016-08-17T13:56:24.385Z,190
2016-08-17T13:57:19.639Z,185
2016-08-17T13:58:19.607Z,185
2016-08-17T13:59:22.565Z,185
2016-08-17T14:00:24.340Z,185
2016-08-17T14:01:24.009Z,185
2016-08-17T14:02:20.926Z,185
2016-08-17T14:03:25.715Z,185
2016-08-17T14:04:24.598Z,185
2016-08-17T14:05:20.595Z,190
2016-08-17T14:06:19.629Z,185